sensor_id;sensor_type;location;lat;lon;timestamp;pressure;altitude;pressure_sealevel;temperature;humidity
47753;BME280;2038;51.728;6.674;2024-03-23T00:54:51;76746.06;;;-141.64;89.75
47753;BME280;2038;51.728;6.674;2024-03-23T00:57:18;76732.41;;;-141.64;90.03
47753;BME280;2038;51.728;6.674;2024-03-23T00:59:44;76728.50;;;-141.64;90.18
47753;BME280;2038;51.728;6.674;2024-03-23T01:02:10;76730.44;;;-141.64;90.98
47753;BME280;2038;51.728;6.674;2024-03-23T01:04:36;76726.53;;;-141.64;91.65
47753;BME280;2038;51.728;6.674;2024-03-23T01:07:03;76716.78;;;-141.64;91.36
47753;BME280;2038;51.728;6.674;2024-03-23T01:09:29;76718.72;;;-141.64;91.10
47753;BME280;2038;51.728;6.674;2024-03-23T01:11:55;76724.59;;;-141.64;91.30
47753;BME280;2038;51.728;6.674;2024-03-23T01:14:21;76720.69;;;-141.64;91.38
47753;BME280;2038;51.728;6.674;2024-03-23T01:16:48;76712.88;;;-141.64;90.77
47753;BME280;2038;51.728;6.674;2024-03-23T01:19:14;76718.72;;;-141.64;91.02
47753;BME280;2038;51.728;6.674;2024-03-23T01:21:59;76712.88;;;-141.64;91.61
47753;BME280;2038;51.728;6.674;2024-03-23T01:24:26;76718.72;;;-141.64;91.90
47753;BME280;2038;51.728;6.674;2024-03-23T01:26:52;76705.06;;;-141.64;92.07
47753;BME280;2038;51.728;6.674;2024-03-23T01:29:18;76701.16;;;-141.64;92.02
47753;BME280;2038;51.728;6.674;2024-03-23T01:31:44;76703.13;;;-141.64;92.21
47753;BME280;2038;51.728;6.674;2024-03-23T01:34:11;76708.97;;;-141.64;91.92
47753;BME280;2038;51.728;6.674;2024-03-23T01:36:38;76708.97;;;-141.64;92.30
47753;BME280;2038;51.728;6.674;2024-03-23T01:39:05;76708.97;;;-141.64;91.98
47753;BME280;2038;51.728;6.674;2024-03-23T01:41:31;76707.00;;;-141.64;92.08
47753;BME280;2038;51.728;6.674;2024-03-23T01:43:57;76697.25;;;-141.64;92.63
47753;BME280;2038;51.728;6.674;2024-03-23T01:46:23;76695.31;;;-141.64;92.36
47753;BME280;2038;51.728;6.674;2024-03-23T01:49:09;76703.13;;;-141.64;92.71
47753;BME280;2038;51.728;6.674;2024-03-23T01:54:41;76712.88;;;-141.64;91.96
47753;BME280;2038;51.728;6.674;2024-03-23T01:57:20;76720.69;;;-141.64;91.44
47753;BME280;2038;51.728;6.674;2024-03-23T01:59:48;76722.63;;;-141.64;91.05
47753;BME280;2038;51.728;6.674;2024-03-23T02:02:15;76734.34;;;-141.64;91.05
47753;BME280;2038;51.728;6.674;2024-03-23T02:04:43;76734.34;;;-141.64;91.04
47753;BME280;2038;51.728;6.674;2024-03-23T02:07:10;76738.25;;;-141.64;91.04
47753;BME280;2038;51.728;6.674;2024-03-23T02:09:36;76742.16;;;-141.64;91.17
47753;BME280;2038;51.728;6.674;2024-03-23T02:12:03;76742.16;;;-141.64;90.83
47753;BME280;2038;51.728;6.674;2024-03-23T02:14:29;76738.25;;;-141.64;91.32
47753;BME280;2038;51.728;6.674;2024-03-23T02:16:55;76744.13;;;-141.64;91.61
47753;BME280;2038;51.728;6.674;2024-03-23T02:19:22;76732.41;;;-141.64;92.20
47753;BME280;2038;51.728;6.674;2024-03-23T02:21:48;76724.59;;;-141.64;91.97
47753;BME280;2038;51.728;6.674;2024-03-23T02:24:14;76718.72;;;-141.64;92.34
47753;BME280;2038;51.728;6.674;2024-03-23T02:26:40;76716.78;;;-141.64;92.48
47753;BME280;2038;51.728;6.674;2024-03-23T02:29:06;76710.91;;;-141.64;92.04
47753;BME280;2038;51.728;6.674;2024-03-23T02:31:35;76716.78;;;-141.64;91.61
47753;BME280;2038;51.728;6.674;2024-03-23T02:34:02;76728.50;;;-141.64;92.09
47753;BME280;2038;51.728;6.674;2024-03-23T02:36:40;76732.41;;;-141.64;92.22
47753;BME280;2038;51.728;6.674;2024-03-23T02:39:06;76736.31;;;-141.64;91.92
47753;BME280;2038;51.728;6.674;2024-03-23T02:41:45;76718.72;;;-141.64;92.29
47753;BME280;2038;51.728;6.674;2024-03-23T02:44:11;76718.72;;;-141.64;92.26
47753;BME280;2038;51.728;6.674;2024-03-23T02:46:38;76716.78;;;-141.64;91.98
47753;BME280;2038;51.728;6.674;2024-03-23T02:49:10;76708.97;;;-141.64;91.97
47753;BME280;2038;51.728;6.674;2024-03-23T02:51:36;76699.19;;;-141.64;92.37
47753;BME280;2038;51.728;6.674;2024-03-23T02:54:03;76695.31;;;-141.64;92.12
47753;BME280;2038;51.728;6.674;2024-03-23T02:56:38;76695.31;;;-141.64;92.50
47753;BME280;2038;51.728;6.674;2024-03-23T02:59:04;76693.34;;;-141.64;91.91
47753;BME280;2038;51.728;6.674;2024-03-23T03:01:43;76697.25;;;-141.64;92.07
47753;BME280;2038;51.728;6.674;2024-03-23T03:04:09;76705.06;;;-141.64;92.29
47753;BME280;2038;51.728;6.674;2024-03-23T03:06:36;76705.06;;;-141.64;92.01
47753;BME280;2038;51.728;6.674;2024-03-23T03:09:03;76707.00;;;-141.64;91.78
47753;BME280;2038;51.728;6.674;2024-03-23T03:11:29;76712.88;;;-141.64;92.07
47753;BME280;2038;51.728;6.674;2024-03-23T03:14:07;76705.06;;;-141.64;91.68
47753;BME280;2038;51.728;6.674;2024-03-23T03:16:34;76707.00;;;-141.64;92.04
47753;BME280;2038;51.728;6.674;2024-03-23T03:19:00;76714.81;;;-141.64;92.71
47753;BME280;2038;51.728;6.674;2024-03-23T03:21:27;76703.13;;;-141.64;92.24
47753;BME280;2038;51.728;6.674;2024-03-23T03:23:54;76705.06;;;-141.64;92.09
47753;BME280;2038;51.728;6.674;2024-03-23T03:26:22;76710.91;;;-141.64;91.70
47753;BME280;2038;51.728;6.674;2024-03-23T03:28:49;76708.97;;;-141.64;91.21
47753;BME280;2038;51.728;6.674;2024-03-23T03:31:35;76703.13;;;-141.64;90.57
47753;BME280;2038;51.728;6.674;2024-03-23T03:34:01;76705.06;;;-141.64;90.78
47753;BME280;2038;51.728;6.674;2024-03-23T03:36:28;76708.97;;;-141.64;90.54
47753;BME280;2038;51.728;6.674;2024-03-23T03:39:07;76707.00;;;-141.64;89.82
47753;BME280;2038;51.728;6.674;2024-03-23T03:41:33;76718.72;;;-141.64;89.88
47753;BME280;2038;51.728;6.674;2024-03-23T03:43:59;76718.72;;;-141.64;89.97
47753;BME280;2038;51.728;6.674;2024-03-23T03:46:30;76697.25;;;-141.64;89.94
47753;BME280;2038;51.728;6.674;2024-03-23T03:48:59;76695.31;;;-141.64;89.57
47753;BME280;2038;51.728;6.674;2024-03-23T03:51:29;76722.63;;;-141.64;89.97
47753;BME280;2038;51.728;6.674;2024-03-23T03:54:07;76707.00;;;-141.64;89.94
47753;BME280;2038;51.728;6.674;2024-03-23T03:56:40;76703.13;;;-141.64;89.92
47753;BME280;2038;51.728;6.674;2024-03-23T03:59:08;76687.50;;;-141.64;89.91
47753;BME280;2038;51.728;6.674;2024-03-23T04:01:35;76720.69;;;-141.64;90.74
47753;BME280;2038;51.728;6.674;2024-03-23T04:04:04;76716.78;;;-141.64;90.26
47753;BME280;2038;51.728;6.674;2024-03-23T04:06:31;76705.06;;;-141.64;90.72
47753;BME280;2038;51.728;6.674;2024-03-23T04:09:02;76703.13;;;-141.64;90.27
47753;BME280;2038;51.728;6.674;2024-03-23T04:11:34;76710.91;;;-141.64;90.89
47753;BME280;2038;51.728;6.674;2024-03-23T04:14:06;76695.31;;;-141.64;90.52
47753;BME280;2038;51.728;6.674;2024-03-23T04:16:35;76697.25;;;-141.64;90.33
47753;BME280;2038;51.728;6.674;2024-03-23T04:19:03;76718.72;;;-141.64;90.67
47753;BME280;2038;51.728;6.674;2024-03-23T04:21:39;76708.97;;;-141.64;91.22
47753;BME280;2038;51.728;6.674;2024-03-23T04:24:09;76705.06;;;-141.64;90.45
47753;BME280;2038;51.728;6.674;2024-03-23T04:26:42;76703.13;;;-141.64;90.83
47753;BME280;2038;51.728;6.674;2024-03-23T04:29:09;76699.19;;;-141.64;90.40
47753;BME280;2038;51.728;6.674;2024-03-23T04:31:37;76703.13;;;-141.64;90.54
47753;BME280;2038;51.728;6.674;2024-03-23T04:34:06;76710.91;;;-141.64;91.62
47753;BME280;2038;51.728;6.674;2024-03-23T04:36:34;76707.00;;;-141.64;91.75
47753;BME280;2038;51.728;6.674;2024-03-23T04:39:11;76707.00;;;-141.64;91.24
47753;BME280;2038;51.728;6.674;2024-03-23T04:41:41;76710.91;;;-141.64;92.09
47753;BME280;2038;51.728;6.674;2024-03-23T04:44:10;76703.13;;;-141.64;92.17
47753;BME280;2038;51.728;6.674;2024-03-23T04:46:42;76720.69;;;-141.64;92.17
47753;BME280;2038;51.728;6.674;2024-03-23T04:49:24;76699.19;;;-141.64;92.50
47753;BME280;2038;51.728;6.674;2024-03-23T04:51:55;76705.06;;;-141.64;92.13
47753;BME280;2038;51.728;6.674;2024-03-23T04:54:24;76703.13;;;-141.64;92.31
47753;BME280;2038;51.728;6.674;2024-03-23T04:56:57;76720.69;;;-141.64;92.02
47753;BME280;2038;51.728;6.674;2024-03-23T04:59:33;76718.72;;;-141.64;92.59
47753;BME280;2038;51.728;6.674;2024-03-23T05:02:09;76705.06;;;-141.64;92.66
47753;BME280;2038;51.728;6.674;2024-03-23T05:04:37;76712.88;;;-141.64;92.43
47753;BME280;2038;51.728;6.674;2024-03-23T05:07:04;76714.81;;;-141.64;92.85
47753;BME280;2038;51.728;6.674;2024-03-23T05:09:44;76716.78;;;-141.64;92.84
47753;BME280;2038;51.728;6.674;2024-03-23T05:12:14;76716.78;;;-141.64;93.10
47753;BME280;2038;51.728;6.674;2024-03-23T05:14:41;76697.25;;;-141.64;92.97
47753;BME280;2038;51.728;6.674;2024-03-23T05:17:16;76705.06;;;-141.64;92.62
47753;BME280;2038;51.728;6.674;2024-03-23T05:19:47;76705.06;;;-141.64;92.73
47753;BME280;2038;51.728;6.674;2024-03-23T05:22:20;76703.13;;;-141.64;92.88
47753;BME280;2038;51.728;6.674;2024-03-23T05:24:54;76708.97;;;-141.64;92.64
47753;BME280;2038;51.728;6.674;2024-03-23T05:27:33;76714.81;;;-141.64;93.17
47753;BME280;2038;51.728;6.674;2024-03-23T05:30:03;76720.69;;;-141.64;93.23
47753;BME280;2038;51.728;6.674;2024-03-23T05:32:36;76720.69;;;-141.64;92.73
47753;BME280;2038;51.728;6.674;2024-03-23T05:35:08;76736.31;;;-141.64;93.14
47753;BME280;2038;51.728;6.674;2024-03-23T05:37:37;76728.50;;;-141.64;93.88
47753;BME280;2038;51.728;6.674;2024-03-23T05:40:08;76722.63;;;-141.64;93.37
47753;BME280;2038;51.728;6.674;2024-03-23T05:42:37;76718.72;;;-141.64;92.67
47753;BME280;2038;51.728;6.674;2024-03-23T05:45:05;76718.72;;;-141.64;92.48
47753;BME280;2038;51.728;6.674;2024-03-23T05:47:37;76724.59;;;-141.64;92.27
47753;BME280;2038;51.728;6.674;2024-03-23T05:50:04;76734.34;;;-141.64;92.60
47753;BME280;2038;51.728;6.674;2024-03-23T05:52:50;76716.78;;;-141.64;92.02
47753;BME280;2038;51.728;6.674;2024-03-23T05:55:23;76734.34;;;-141.64;91.84
47753;BME280;2038;51.728;6.674;2024-03-23T05:57:50;76744.13;;;-141.64;91.98
47753;BME280;2038;51.728;6.674;2024-03-23T06:00:20;76746.06;;;-141.64;92.28
47753;BME280;2038;51.728;6.674;2024-03-23T06:02:46;76734.34;;;-141.64;92.38
47753;BME280;2038;51.728;6.674;2024-03-23T06:05:18;76749.97;;;-141.64;92.18
47753;BME280;2038;51.728;6.674;2024-03-23T06:07:52;76746.06;;;-141.64;91.95
47753;BME280;2038;51.728;6.674;2024-03-23T06:10:22;76773.41;;;-141.64;91.96
47753;BME280;2038;51.728;6.674;2024-03-23T06:12:56;76753.88;;;-141.64;92.04
47753;BME280;2038;51.728;6.674;2024-03-23T06:15:29;76771.44;;;-141.64;92.64
47753;BME280;2038;51.728;6.674;2024-03-23T06:18:03;76761.69;;;-141.64;93.00
47753;BME280;2038;51.728;6.674;2024-03-23T06:20:33;76744.13;;;-141.64;92.46
47753;BME280;2038;51.728;6.674;2024-03-23T06:23:06;76755.84;;;-141.64;92.92
47753;BME280;2038;51.728;6.674;2024-03-23T06:25:32;76742.16;;;-141.64;92.95
47753;BME280;2038;51.728;6.674;2024-03-23T06:28:12;76736.31;;;-141.64;92.97
47753;BME280;2038;51.728;6.674;2024-03-23T06:30:43;76736.31;;;-141.64;93.37
47753;BME280;2038;51.728;6.674;2024-03-23T06:33:10;76742.16;;;-141.64;93.33
47753;BME280;2038;51.728;6.674;2024-03-23T06:35:42;76738.25;;;-141.64;93.11
47753;BME280;2038;51.728;6.674;2024-03-23T06:38:09;76740.22;;;-141.64;93.30
47753;BME280;2038;51.728;6.674;2024-03-23T06:40:37;76736.31;;;-141.64;93.17
47753;BME280;2038;51.728;6.674;2024-03-23T06:43:03;76732.41;;;-141.64;93.06
47753;BME280;2038;51.728;6.674;2024-03-23T06:45:44;76716.78;;;-141.64;92.87
47753;BME280;2038;51.728;6.674;2024-03-23T06:48:18;76724.59;;;-141.64;92.36
47753;BME280;2038;51.728;6.674;2024-03-23T06:50:58;76714.81;;;-141.64;92.30
47753;BME280;2038;51.728;6.674;2024-03-23T06:53:28;76714.81;;;-141.64;92.18
47753;BME280;2038;51.728;6.674;2024-03-23T06:56:14;76710.91;;;-141.64;91.84
47753;BME280;2038;51.728;6.674;2024-03-23T06:59:00;76708.97;;;-141.64;91.54
47753;BME280;2038;51.728;6.674;2024-03-23T07:01:29;76712.88;;;-141.64;91.09
47753;BME280;2038;51.728;6.674;2024-03-23T07:04:05;76693.34;;;-141.64;91.19
47753;BME280;2038;51.728;6.674;2024-03-23T07:06:39;76677.72;;;-141.64;90.43
47753;BME280;2038;51.728;6.674;2024-03-23T07:09:18;76658.19;;;-141.64;90.82
47753;BME280;2038;51.728;6.674;2024-03-23T07:11:49;76650.41;;;-141.64;90.41
47753;BME280;2038;51.728;6.674;2024-03-23T07:14:16;76644.53;;;-141.64;89.51
47753;BME280;2038;51.728;6.674;2024-03-23T07:16:46;76666.00;;;-141.64;88.81
47753;BME280;2038;51.728;6.674;2024-03-23T07:19:17;76666.00;;;-141.64;88.22
47753;BME280;2038;51.728;6.674;2024-03-23T07:21:47;76652.34;;;-141.64;88.30
47753;BME280;2038;51.728;6.674;2024-03-23T07:24:17;76669.91;;;-141.64;88.23
47753;BME280;2038;51.728;6.674;2024-03-23T07:26:54;76669.91;;;-141.64;87.71
47753;BME280;2038;51.728;6.674;2024-03-23T07:29:24;76673.81;;;-141.64;87.90
47753;BME280;2038;51.728;6.674;2024-03-23T07:31:51;76677.72;;;-141.64;87.75
47753;BME280;2038;51.728;6.674;2024-03-23T07:34:18;76666.00;;;-141.64;87.53
47753;BME280;2038;51.728;6.674;2024-03-23T07:36:48;76664.06;;;-141.64;88.23
47753;BME280;2038;51.728;6.674;2024-03-23T07:39:18;76664.06;;;-141.64;87.62
47753;BME280;2038;51.728;6.674;2024-03-23T07:41:56;76648.44;;;-141.64;87.76
47753;BME280;2038;51.728;6.674;2024-03-23T07:44:25;76644.53;;;-141.64;87.81
47753;BME280;2038;51.728;6.674;2024-03-23T07:46:58;76628.91;;;-141.64;86.92
47753;BME280;2038;51.728;6.674;2024-03-23T07:49:37;76619.16;;;-141.64;87.03
47753;BME280;2038;51.728;6.674;2024-03-23T07:52:12;76603.53;;;-141.64;86.35
47753;BME280;2038;51.728;6.674;2024-03-23T08:10:12;76572.28;;;-141.64;83.36
47753;BME280;2038;51.728;6.674;2024-03-23T08:13:09;76578.16;;;-141.64;82.05
47753;BME280;2038;51.728;6.674;2024-03-23T08:33:39;76531.28;;;-141.64;82.33
47753;BME280;2038;51.728;6.674;2024-03-23T10:00:33;76373.13;;;-141.64;70.76
47753;BME280;2038;51.728;6.674;2024-03-23T10:04:05;76388.75;;;-141.64;70.42
47753;BME280;2038;51.728;6.674;2024-03-23T10:07:32;76396.56;;;-141.64;68.96
47753;BME280;2038;51.728;6.674;2024-03-23T10:10:49;76382.91;;;-141.64;69.42
47753;BME280;2038;51.728;6.674;2024-03-23T10:18:16;76355.56;;;-141.64;71.00
47753;BME280;2038;51.728;6.674;2024-03-23T10:23:45;76328.25;;;-141.64;68.62
47753;BME280;2038;51.728;6.674;2024-03-23T10:26:24;76314.56;;;-141.64;68.81
47753;BME280;2038;51.728;6.674;2024-03-23T10:29:03;76339.94;;;-141.64;66.62
47753;BME280;2038;51.728;6.674;2024-03-23T10:31:50;76332.16;;;-141.64;67.17
47753;BME280;2038;51.728;6.674;2024-03-23T10:34:57;76343.84;;;-141.64;67.06
47753;BME280;2038;51.728;6.674;2024-03-23T10:37:50;76371.19;;;-141.64;67.27
47753;BME280;2038;51.728;6.674;2024-03-23T10:40:31;76418.03;;;-141.64;66.57
47753;BME280;2038;51.728;6.674;2024-03-23T10:43:00;76445.38;;;-141.64;67.60
47753;BME280;2038;51.728;6.674;2024-03-23T10:45:30;76486.38;;;-141.64;64.21
47753;BME280;2038;51.728;6.674;2024-03-23T10:48:03;76498.09;;;-141.64;64.13
47753;BME280;2038;51.728;6.674;2024-03-23T10:50:30;76500.06;;;-141.64;66.02
47753;BME280;2038;51.728;6.674;2024-03-23T10:52:57;76503.97;;;-141.64;66.68
47753;BME280;2038;51.728;6.674;2024-03-23T10:55:25;76519.56;;;-141.64;66.63
47753;BME280;2038;51.728;6.674;2024-03-23T10:57:55;76502.00;;;-141.64;68.48
47753;BME280;2038;51.728;6.674;2024-03-23T11:00:38;76505.91;;;-141.64;68.21
47753;BME280;2038;51.728;6.674;2024-03-23T11:03:33;76484.44;;;-141.64;69.70
47753;BME280;2038;51.728;6.674;2024-03-23T11:06:06;76496.16;;;-141.64;70.30
47753;BME280;2038;51.728;6.674;2024-03-23T11:09:02;76521.53;;;-141.64;70.20
47753;BME280;2038;51.728;6.674;2024-03-23T11:11:29;76498.09;;;-141.64;70.59
47753;BME280;2038;51.728;6.674;2024-03-23T11:13:58;76494.19;;;-141.64;70.53
47753;BME280;2038;51.728;6.674;2024-03-23T11:16:27;76468.81;;;-141.64;72.52
47753;BME280;2038;51.728;6.674;2024-03-23T11:19:34;76474.66;;;-141.64;69.94
47753;BME280;2038;51.728;6.674;2024-03-23T11:22:10;76451.25;;;-141.64;71.47
47753;BME280;2038;51.728;6.674;2024-03-23T11:25:26;76380.94;;;-141.64;71.48
47753;BME280;2038;51.728;6.674;2024-03-23T11:28:11;76373.13;;;-141.64;71.30
47753;BME280;2038;51.728;6.674;2024-03-23T11:30:45;76379.00;;;-141.64;69.97
47753;BME280;2038;51.728;6.674;2024-03-23T11:33:14;76347.75;;;-141.64;72.21
47753;BME280;2038;51.728;6.674;2024-03-23T11:35:51;76345.81;;;-141.64;69.87
47753;BME280;2038;51.728;6.674;2024-03-23T11:38:37;76324.34;;;-141.64;71.20
47753;BME280;2038;51.728;6.674;2024-03-23T11:41:20;76297.00;;;-141.64;69.96
47753;BME280;2038;51.728;6.674;2024-03-23T11:43:49;76300.91;;;-141.64;69.30
47753;BME280;2038;51.728;6.674;2024-03-23T11:46:27;76269.66;;;-141.64;69.24
47753;BME280;2038;51.728;6.674;2024-03-23T11:48:56;76240.38;;;-141.64;67.90
47753;BME280;2038;51.728;6.674;2024-03-23T11:51:31;76256.00;;;-141.64;68.08
47753;BME280;2038;51.728;6.674;2024-03-23T11:54:25;76215.00;;;-141.64;68.66
47753;BME280;2038;51.728;6.674;2024-03-23T11:57:04;76238.44;;;-141.64;65.41
47753;BME280;2038;51.728;6.674;2024-03-23T11:59:45;76279.44;;;-141.64;65.92
47753;BME280;2038;51.728;6.674;2024-03-23T12:02:13;76318.47;;;-141.64;65.45
47753;BME280;2038;51.728;6.674;2024-03-23T12:04:53;76338.00;;;-141.64;66.51
47753;BME280;2038;51.728;6.674;2024-03-23T12:07:26;76361.44;;;-141.64;68.78
47753;BME280;2038;51.728;6.674;2024-03-23T12:10:11;76375.09;;;-141.64;69.73
47753;BME280;2038;51.728;6.674;2024-03-23T12:12:39;76394.63;;;-141.64;72.43
47753;BME280;2038;51.728;6.674;2024-03-23T12:15:09;76421.94;;;-141.64;73.52
47753;BME280;2038;51.728;6.674;2024-03-23T12:17:43;76435.63;;;-141.64;74.81
47753;BME280;2038;51.728;6.674;2024-03-23T12:20:13;76427.81;;;-141.64;75.27
47753;BME280;2038;51.728;6.674;2024-03-23T12:22:44;76410.25;;;-141.64;75.83
47753;BME280;2038;51.728;6.674;2024-03-23T12:25:18;76410.25;;;-141.64;75.05
47753;BME280;2038;51.728;6.674;2024-03-23T12:30:41;76375.09;;;-141.64;72.88
47753;BME280;2038;51.728;6.674;2024-03-23T12:33:09;76380.94;;;-141.64;70.33
47753;BME280;2038;51.728;6.674;2024-03-23T12:35:37;76425.84;;;-141.64;70.28
47753;BME280;2038;51.728;6.674;2024-03-23T12:38:06;76412.19;;;-141.64;70.95
47753;BME280;2038;51.728;6.674;2024-03-23T12:40:40;76402.44;;;-141.64;70.30
47753;BME280;2038;51.728;6.674;2024-03-23T12:43:11;76423.91;;;-141.64;69.70
47753;BME280;2038;51.728;6.674;2024-03-23T12:46:03;76394.63;;;-141.64;69.43
47753;BME280;2038;51.728;6.674;2024-03-23T12:48:29;76367.28;;;-141.64;68.46
47753;BME280;2038;51.728;6.674;2024-03-23T12:51:06;76347.75;;;-141.64;68.84
47753;BME280;2038;51.728;6.674;2024-03-23T12:53:34;76328.25;;;-141.64;66.33
47753;BME280;2038;51.728;6.674;2024-03-23T12:56:02;76334.09;;;-141.64;64.61
47753;BME280;2038;51.728;6.674;2024-03-23T12:58:38;76343.84;;;-141.64;65.22
47753;BME280;2038;51.728;6.674;2024-03-23T13:01:10;76375.09;;;-141.64;63.67
47753;BME280;2038;51.728;6.674;2024-03-23T13:03:40;76421.94;;;-141.64;64.76
47753;BME280;2038;51.728;6.674;2024-03-23T13:06:21;76447.34;;;-141.64;64.56
47753;BME280;2038;51.728;6.674;2024-03-23T13:09:12;76472.72;;;-141.64;65.67
47753;BME280;2038;51.728;6.674;2024-03-23T13:11:44;76484.44;;;-141.64;67.47
47753;BME280;2038;51.728;6.674;2024-03-23T13:14:17;76447.34;;;-141.64;66.65
47753;BME280;2038;51.728;6.674;2024-03-23T13:16:54;76406.34;;;-141.64;64.86
47753;BME280;2038;51.728;6.674;2024-03-23T13:19:25;76386.81;;;-141.64;65.13
47753;BME280;2038;51.728;6.674;2024-03-23T13:22:22;76375.09;;;-141.64;62.71
47753;BME280;2038;51.728;6.674;2024-03-23T13:25:14;76363.38;;;-141.64;60.96
47753;BME280;2038;51.728;6.674;2024-03-23T13:28:05;76343.84;;;-141.64;60.38
47753;BME280;2038;51.728;6.674;2024-03-23T13:30:34;76416.09;;;-141.64;60.53
47753;BME280;2038;51.728;6.674;2024-03-23T13:33:26;76427.81;;;-141.64;61.69
47753;BME280;2038;51.728;6.674;2024-03-23T13:36:07;76423.91;;;-141.64;63.04
47753;BME280;2038;51.728;6.674;2024-03-23T13:38:41;76375.09;;;-141.64;64.96
47753;BME280;2038;51.728;6.674;2024-03-23T13:41:19;76339.94;;;-141.64;64.25
47753;BME280;2038;51.728;6.674;2024-03-23T13:43:49;76363.38;;;-141.64;64.68
47753;BME280;2038;51.728;6.674;2024-03-23T13:46:18;76379.00;;;-141.64;65.71
47753;BME280;2038;51.728;6.674;2024-03-23T13:48:53;76392.66;;;-141.64;65.66
47753;BME280;2038;51.728;6.674;2024-03-23T13:51:49;76394.63;;;-141.64;67.20
47753;BME280;2038;51.728;6.674;2024-03-23T13:54:20;76437.56;;;-141.64;67.26
47753;BME280;2038;51.728;6.674;2024-03-23T13:57:04;76447.34;;;-141.64;68.75
47753;BME280;2038;51.728;6.674;2024-03-23T13:59:58;76476.63;;;-141.64;70.91
47753;BME280;2038;51.728;6.674;2024-03-23T14:02:26;76480.53;;;-141.64;71.92
47753;BME280;2038;51.728;6.674;2024-03-23T14:13:49;76443.44;;;-141.64;69.12
47753;BME280;2038;51.728;6.674;2024-03-23T14:20:13;76382.91;;;-141.64;68.31
47753;BME280;2038;51.728;6.674;2024-03-23T14:22:40;76377.06;;;-141.64;68.72
47753;BME280;2038;51.728;6.674;2024-03-23T14:25:07;76404.38;;;-141.64;68.52
47753;BME280;2038;51.728;6.674;2024-03-23T14:27:34;76443.44;;;-141.64;68.36
47753;BME280;2038;51.728;6.674;2024-03-23T14:30:03;76375.09;;;-141.64;68.75
47753;BME280;2038;51.728;6.674;2024-03-23T14:32:34;76330.19;;;-141.64;67.61
47753;BME280;2038;51.728;6.674;2024-03-23T14:35:02;76322.38;;;-141.64;67.48
47753;BME280;2038;51.728;6.674;2024-03-23T14:37:29;76306.75;;;-141.64;66.57
47753;BME280;2038;51.728;6.674;2024-03-23T14:39:56;76287.25;;;-141.64;64.96
47753;BME280;2038;51.728;6.674;2024-03-23T14:42:23;76314.56;;;-141.64;63.48
47753;BME280;2038;51.728;6.674;2024-03-23T14:44:50;76314.56;;;-141.64;63.61
47753;BME280;2038;51.728;6.674;2024-03-23T14:47:18;76324.34;;;-141.64;62.61
47753;BME280;2038;51.728;6.674;2024-03-23T14:49:45;76326.28;;;-141.64;63.03
47753;BME280;2038;51.728;6.674;2024-03-23T14:52:20;76314.56;;;-141.64;63.99
47753;BME280;2038;51.728;6.674;2024-03-23T14:54:46;76306.75;;;-141.64;63.71
47753;BME280;2038;51.728;6.674;2024-03-23T14:57:12;76314.56;;;-141.64;63.00
47753;BME280;2038;51.728;6.674;2024-03-23T14:59:39;76322.38;;;-141.64;62.48
47753;BME280;2038;51.728;6.674;2024-03-23T15:02:12;76298.97;;;-141.64;62.56
47753;BME280;2038;51.728;6.674;2024-03-23T15:04:39;76300.91;;;-141.64;61.48
47753;BME280;2038;51.728;6.674;2024-03-23T15:07:07;76261.84;;;-141.64;62.62
47753;BME280;2038;51.728;6.674;2024-03-23T15:09:34;76273.56;;;-141.64;62.08
47753;BME280;2038;51.728;6.674;2024-03-23T15:12:00;76244.28;;;-141.64;62.99
47753;BME280;2038;51.728;6.674;2024-03-23T15:14:26;76222.81;;;-141.64;62.45
47753;BME280;2038;51.728;6.674;2024-03-23T15:16:53;76248.19;;;-141.64;61.46
47753;BME280;2038;51.728;6.674;2024-03-23T15:19:20;76224.75;;;-141.64;62.22
47753;BME280;2038;51.728;6.674;2024-03-23T15:21:46;76279.44;;;-141.64;62.41
47753;BME280;2038;51.728;6.674;2024-03-23T15:24:17;76275.53;;;-141.64;62.84
47753;BME280;2038;51.728;6.674;2024-03-23T15:27:27;76269.66;;;-141.64;61.57
47753;BME280;2038;51.728;6.674;2024-03-23T15:30:15;76277.47;;;-141.64;62.58
47753;BME280;2038;51.728;6.674;2024-03-23T15:32:47;76271.63;;;-141.64;62.77
47753;BME280;2038;51.728;6.674;2024-03-23T15:35:24;76320.44;;;-141.64;62.22
47753;BME280;2038;51.728;6.674;2024-03-23T15:38:35;76285.28;;;-141.64;61.50
47753;BME280;2038;51.728;6.674;2024-03-23T15:41:35;76310.66;;;-141.64;61.38
47753;BME280;2038;51.728;6.674;2024-03-23T15:44:04;76330.19;;;-141.64;62.03
47753;BME280;2038;51.728;6.674;2024-03-23T17:25:26;76558.63;;;-141.64;70.63
47753;BME280;2038;51.728;6.674;2024-03-23T17:27:52;76568.38;;;-141.64;70.80
47753;BME280;2038;51.728;6.674;2024-03-23T17:30:19;76572.28;;;-141.64;70.96
47753;BME280;2038;51.728;6.674;2024-03-23T17:32:45;76591.81;;;-141.64;71.66
47753;BME280;2038;51.728;6.674;2024-03-23T17:35:12;76609.38;;;-141.64;71.80
47753;BME280;2038;51.728;6.674;2024-03-23T17:37:40;76611.34;;;-141.64;71.50
47753;BME280;2038;51.728;6.674;2024-03-23T17:40:08;76638.69;;;-141.64;71.93
47753;BME280;2038;51.728;6.674;2024-03-23T17:42:36;76644.53;;;-141.64;71.87
47753;BME280;2038;51.728;6.674;2024-03-23T17:45:38;76658.19;;;-141.64;72.11
47753;BME280;2038;51.728;6.674;2024-03-23T17:48:20;76673.81;;;-141.64;72.76
47753;BME280;2038;51.728;6.674;2024-03-23T17:51:14;76671.88;;;-141.64;72.73
47753;BME280;2038;51.728;6.674;2024-03-23T17:54:01;76669.91;;;-141.64;72.96
47753;BME280;2038;51.728;6.674;2024-03-23T17:56:50;76683.59;;;-141.64;73.29
47753;BME280;2038;51.728;6.674;2024-03-23T17:59:50;76705.06;;;-141.64;73.74
47753;BME280;2038;51.728;6.674;2024-03-23T18:02:34;76703.13;;;-141.64;73.47
47753;BME280;2038;51.728;6.674;2024-03-23T18:05:27;76724.59;;;-141.64;73.81
47753;BME280;2038;51.728;6.674;2024-03-23T18:08:02;76734.34;;;-141.64;73.67
47753;BME280;2038;51.728;6.674;2024-03-23T18:10:56;76751.94;;;-141.64;73.86
47753;BME280;2038;51.728;6.674;2024-03-23T18:16:22;76759.72;;;-141.64;74.40
47753;BME280;2038;51.728;6.674;2024-03-23T18:18:55;76763.63;;;-141.64;73.99
47753;BME280;2038;51.728;6.674;2024-03-23T18:21:29;76761.69;;;-141.64;74.79
47753;BME280;2038;51.728;6.674;2024-03-23T18:23:59;76765.59;;;-141.64;74.59